sensor_id;sensor_type;location;lat;lon;timestamp;P1;durP1;ratioP1;P2;durP2;ratioP2
13685;SDS011;6915;48.296;8.874;2022-12-07T00:02:25;5.03;;;4.53;;
13685;SDS011;6915;48.296;8.874;2022-12-07T00:04:54;5.17;;;4.63;;
13685;SDS011;6915;48.296;8.874;2022-12-07T00:07:26;5.07;;;4.53;;
13685;SDS011;6915;48.296;8.874;2022-12-07T00:09:55;5.40;;;4.90;;
13685;SDS011;6915;48.296;8.874;2022-12-07T00:12:23;5.03;;;4.53;;
13685;SDS011;6915;48.296;8.874;2022-12-07T00:14:52;5.30;;;4.80;;
13685;SDS011;6915;48.296;8.874;2022-12-07T00:17:22;5.23;;;4.73;;
13685;SDS011;6915;48.296;8.874;2022-12-07T00:19:51;6.70;;;5.40;;
13685;SDS011;6915;48.296;8.874;2022-12-07T00:22:19;6.77;;;5.13;;
13685;SDS011;6915;48.296;8.874;2022-12-07T00:24:48;5.43;;;4.93;;
13685;SDS011;6915;48.296;8.874;2022-12-07T00:27:16;5.37;;;4.87;;
13685;SDS011;6915;48.296;8.874;2022-12-07T00:49:53;7.70;;;5.90;;
13685;SDS011;6915;48.296;8.874;2022-12-07T00:52:24;7.07;;;5.73;;
13685;SDS011;6915;48.296;8.874;2022-12-07T00:54:52;6.83;;;5.70;;
13685;SDS011;6915;48.296;8.874;2022-12-07T00:57:23;7.87;;;6.13;;
13685;SDS011;6915;48.296;8.874;2022-12-07T00:59:51;6.67;;;5.70;;
13685;SDS011;6915;48.296;8.874;2022-12-07T01:02:24;6.83;;;5.90;;
13685;SDS011;6915;48.296;8.874;2022-12-07T01:04:54;7.47;;;6.20;;
13685;SDS011;6915;48.296;8.874;2022-12-07T01:07:23;8.67;;;6.20;;
13685;SDS011;6915;48.296;8.874;2022-12-07T01:09:52;7.10;;;6.40;;
13685;SDS011;6915;48.296;8.874;2022-12-07T01:12:20;8.30;;;7.07;;
13685;SDS011;6915;48.296;8.874;2022-12-07T01:14:49;9.00;;;7.07;;
13685;SDS011;6915;48.296;8.874;2022-12-07T01:17:18;7.93;;;6.83;;
13685;SDS011;6915;48.296;8.874;2022-12-07T01:19:46;8.03;;;6.90;;
13685;SDS011;6915;48.296;8.874;2022-12-07T01:22:16;8.03;;;6.87;;
13685;SDS011;6915;48.296;8.874;2022-12-07T01:24:47;7.80;;;6.60;;
13685;SDS011;6915;48.296;8.874;2022-12-07T01:27:16;7.80;;;7.00;;
13685;SDS011;6915;48.296;8.874;2022-12-07T01:29:44;7.57;;;6.50;;
13685;SDS011;6915;48.296;8.874;2022-12-07T01:32:13;7.60;;;6.80;;
13685;SDS011;6915;48.296;8.874;2022-12-07T01:34:41;7.53;;;6.83;;
13685;SDS011;6915;48.296;8.874;2022-12-07T01:37:10;11.53;;;7.00;;
13685;SDS011;6915;48.296;8.874;2022-12-07T01:39:40;8.53;;;7.00;;
13685;SDS011;6915;48.296;8.874;2022-12-07T01:42:09;9.20;;;7.07;;
13685;SDS011;6915;48.296;8.874;2022-12-07T01:48:00;7.63;;;6.73;;
13685;SDS011;6915;48.296;8.874;2022-12-07T01:50:30;9.90;;;7.50;;
13685;SDS011;6915;48.296;8.874;2022-12-07T01:52:59;10.90;;;6.77;;
13685;SDS011;6915;48.296;8.874;2022-12-07T01:55:33;8.70;;;7.07;;
13685;SDS011;6915;48.296;8.874;2022-12-07T01:58:04;8.10;;;7.13;;
13685;SDS011;6915;48.296;8.874;2022-12-07T02:00:34;8.43;;;6.63;;
13685;SDS011;6915;48.296;8.874;2022-12-07T02:03:04;8.27;;;6.83;;
13685;SDS011;6915;48.296;8.874;2022-12-07T02:05:37;8.40;;;7.10;;
13685;SDS011;6915;48.296;8.874;2022-12-07T02:08:07;8.90;;;7.27;;
13685;SDS011;6915;48.296;8.874;2022-12-07T02:10:38;8.20;;;7.23;;
13685;SDS011;6915;48.296;8.874;2022-12-07T02:13:08;7.97;;;7.13;;
13685;SDS011;6915;48.296;8.874;2022-12-07T02:18:31;8.60;;;6.80;;
13685;SDS011;6915;48.296;8.874;2022-12-07T02:21:11;8.43;;;6.50;;
13685;SDS011;6915;48.296;8.874;2022-12-07T02:26:58;8.77;;;6.80;;
13685;SDS011;6915;48.296;8.874;2022-12-07T02:29:36;9.23;;;6.40;;
13685;SDS011;6915;48.296;8.874;2022-12-07T02:32:10;10.70;;;6.93;;
13685;SDS011;6915;48.296;8.874;2022-12-07T02:34:45;7.43;;;6.40;;
13685;SDS011;6915;48.296;8.874;2022-12-07T02:37:21;7.17;;;6.33;;
13685;SDS011;6915;48.296;8.874;2022-12-07T02:39:56;6.23;;;5.63;;
13685;SDS011;6915;48.296;8.874;2022-12-07T02:42:29;6.17;;;5.57;;
13685;SDS011;6915;48.296;8.874;2022-12-07T02:45:03;5.60;;;5.00;;
13685;SDS011;6915;48.296;8.874;2022-12-07T02:47:36;5.70;;;5.20;;
13685;SDS011;6915;48.296;8.874;2022-12-07T02:50:06;5.13;;;4.63;;
13685;SDS011;6915;48.296;8.874;2022-12-07T02:52:36;6.17;;;5.27;;
13685;SDS011;6915;48.296;8.874;2022-12-07T02:55:05;8.63;;;5.27;;
13685;SDS011;6915;48.296;8.874;2022-12-07T02:57:42;6.80;;;5.57;;
13685;SDS011;6915;48.296;8.874;2022-12-07T03:00:20;7.27;;;5.40;;
13685;SDS011;6915;48.296;8.874;2022-12-07T03:02:53;5.83;;;5.23;;
13685;SDS011;6915;48.296;8.874;2022-12-07T03:05:31;6.93;;;5.90;;
13685;SDS011;6915;48.296;8.874;2022-12-07T03:08:12;6.20;;;5.40;;
13685;SDS011;6915;48.296;8.874;2022-12-07T03:10:48;7.40;;;5.67;;
13685;SDS011;6915;48.296;8.874;2022-12-07T03:13:24;6.37;;;5.60;;
13685;SDS011;6915;48.296;8.874;2022-12-07T03:15:58;7.13;;;5.93;;
13685;SDS011;6915;48.296;8.874;2022-12-07T03:18:35;7.47;;;5.77;;
13685;SDS011;6915;48.296;8.874;2022-12-07T03:21:11;6.43;;;5.73;;
13685;SDS011;6915;48.296;8.874;2022-12-07T03:23:44;6.67;;;5.93;;
13685;SDS011;6915;48.296;8.874;2022-12-07T03:26:15;6.83;;;6.03;;
13685;SDS011;6915;48.296;8.874;2022-12-07T03:28:47;8.23;;;6.20;;
13685;SDS011;6915;48.296;8.874;2022-12-07T03:31:19;6.37;;;5.60;;
13685;SDS011;6915;48.296;8.874;2022-12-07T03:33:53;7.37;;;6.23;;
13685;SDS011;6915;48.296;8.874;2022-12-07T03:36:27;7.87;;;6.37;;
13685;SDS011;6915;48.296;8.874;2022-12-07T03:39:03;6.93;;;6.10;;
13685;SDS011;6915;48.296;8.874;2022-12-07T03:41:39;7.20;;;5.80;;
13685;SDS011;6915;48.296;8.874;2022-12-07T03:44:06;7.97;;;6.70;;
13685;SDS011;6915;48.296;8.874;2022-12-07T03:46:40;7.83;;;6.10;;
13685;SDS011;6915;48.296;8.874;2022-12-07T03:49:16;8.30;;;6.57;;
13685;SDS011;6915;48.296;8.874;2022-12-07T03:51:51;8.33;;;6.30;;
13685;SDS011;6915;48.296;8.874;2022-12-07T03:54:28;8.37;;;6.27;;
13685;SDS011;6915;48.296;8.874;2022-12-07T03:57:00;8.60;;;6.90;;
13685;SDS011;6915;48.296;8.874;2022-12-07T03:59:32;8.90;;;6.53;;
13685;SDS011;6915;48.296;8.874;2022-12-07T04:02:07;7.20;;;5.97;;
13685;SDS011;6915;48.296;8.874;2022-12-07T04:04:39;7.47;;;6.27;;
13685;SDS011;6915;48.296;8.874;2022-12-07T04:07:09;8.03;;;6.33;;
13685;SDS011;6915;48.296;8.874;2022-12-07T04:09:38;8.90;;;6.43;;
13685;SDS011;6915;48.296;8.874;2022-12-07T04:12:12;8.50;;;6.13;;
13685;SDS011;6915;48.296;8.874;2022-12-07T04:14:41;8.50;;;6.50;;
13685;SDS011;6915;48.296;8.874;2022-12-07T04:17:24;8.10;;;5.93;;
13685;SDS011;6915;48.296;8.874;2022-12-07T04:20:13;7.53;;;5.87;;
13685;SDS011;6915;48.296;8.874;2022-12-07T04:22:43;7.73;;;5.63;;
13685;SDS011;6915;48.296;8.874;2022-12-07T04:25:15;5.43;;;4.63;;
13685;SDS011;6915;48.296;8.874;2022-12-07T06:24:20;6.07;;;5.23;;
13685;SDS011;6915;48.296;8.874;2022-12-07T06:26:51;7.23;;;5.70;;
13685;SDS011;6915;48.296;8.874;2022-12-07T06:29:18;6.87;;;6.17;;
13685;SDS011;6915;48.296;8.874;2022-12-07T06:31:48;7.60;;;6.33;;
13685;SDS011;6915;48.296;8.874;2022-12-07T06:34:18;8.30;;;6.27;;
13685;SDS011;6915;48.296;8.874;2022-12-07T06:39:27;7.87;;;6.73;;
13685;SDS011;6915;48.296;8.874;2022-12-07T06:41:57;8.20;;;7.23;;
13685;SDS011;6915;48.296;8.874;2022-12-07T06:44:25;9.17;;;6.77;;
13685;SDS011;6915;48.296;8.874;2022-12-07T06:46:54;8.33;;;6.83;;
13685;SDS011;6915;48.296;8.874;2022-12-07T06:49:24;7.63;;;6.67;;
13685;SDS011;6915;48.296;8.874;2022-12-07T06:51:52;10.27;;;7.77;;
13685;SDS011;6915;48.296;8.874;2022-12-07T06:54:23;9.10;;;7.63;;
13685;SDS011;6915;48.296;8.874;2022-12-07T06:56:53;9.47;;;7.67;;
13685;SDS011;6915;48.296;8.874;2022-12-07T06:59:21;9.70;;;7.40;;
13685;SDS011;6915;48.296;8.874;2022-12-07T07:01:50;8.77;;;7.43;;
13685;SDS011;6915;48.296;8.874;2022-12-07T07:04:19;8.00;;;7.00;;
13685;SDS011;6915;48.296;8.874;2022-12-07T07:06:48;9.90;;;7.70;;
13685;SDS011;6915;48.296;8.874;2022-12-07T07:09:17;8.63;;;7.27;;
13685;SDS011;6915;48.296;8.874;2022-12-07T07:11:46;8.57;;;6.90;;
13685;SDS011;6915;48.296;8.874;2022-12-07T07:14:16;8.77;;;7.20;;
13685;SDS011;6915;48.296;8.874;2022-12-07T07:16:46;9.57;;;7.87;;
13685;SDS011;6915;48.296;8.874;2022-12-07T07:19:15;10.87;;;8.50;;
13685;SDS011;6915;48.296;8.874;2022-12-07T07:21:43;10.67;;;7.70;;
13685;SDS011;6915;48.296;8.874;2022-12-07T07:24:12;10.07;;;7.37;;
13685;SDS011;6915;48.296;8.874;2022-12-07T07:26:41;9.07;;;6.67;;
13685;SDS011;6915;48.296;8.874;2022-12-07T07:29:09;8.10;;;6.97;;
13685;SDS011;6915;48.296;8.874;2022-12-07T07:31:39;7.90;;;6.97;;
13685;SDS011;6915;48.296;8.874;2022-12-07T07:34:08;9.23;;;7.17;;
13685;SDS011;6915;48.296;8.874;2022-12-07T07:36:36;11.33;;;7.70;;
13685;SDS011;6915;48.296;8.874;2022-12-07T07:39:05;18.33;;;12.40;;
13685;SDS011;6915;48.296;8.874;2022-12-07T07:41:37;15.37;;;11.30;;
13685;SDS011;6915;48.296;8.874;2022-12-07T07:44:06;13.47;;;10.00;;
13685;SDS011;6915;48.296;8.874;2022-12-07T07:46:35;8.73;;;6.57;;
13685;SDS011;6915;48.296;8.874;2022-12-07T07:49:05;8.50;;;6.93;;
13685;SDS011;6915;48.296;8.874;2022-12-07T07:51:35;10.57;;;7.23;;
13685;SDS011;6915;48.296;8.874;2022-12-07T07:54:04;12.63;;;8.07;;
13685;SDS011;6915;48.296;8.874;2022-12-07T07:56:33;13.87;;;8.97;;
13685;SDS011;6915;48.296;8.874;2022-12-07T07:59:01;13.83;;;9.63;;
13685;SDS011;6915;48.296;8.874;2022-12-07T08:01:30;14.60;;;9.33;;
13685;SDS011;6915;48.296;8.874;2022-12-07T08:03:59;15.80;;;10.03;;
13685;SDS011;6915;48.296;8.874;2022-12-07T08:06:29;14.57;;;9.03;;
13685;SDS011;6915;48.296;8.874;2022-12-07T08:08:57;13.67;;;8.53;;
13685;SDS011;6915;48.296;8.874;2022-12-07T08:11:26;12.53;;;8.67;;
13685;SDS011;6915;48.296;8.874;2022-12-07T08:13:55;12.03;;;8.43;;
13685;SDS011;6915;48.296;8.874;2022-12-07T08:16:23;16.20;;;9.43;;
13685;SDS011;6915;48.296;8.874;2022-12-07T08:18:52;14.23;;;10.53;;
13685;SDS011;6915;48.296;8.874;2022-12-07T08:21:21;13.30;;;9.47;;
13685;SDS011;6915;48.296;8.874;2022-12-07T08:23:51;11.80;;;9.30;;
13685;SDS011;6915;48.296;8.874;2022-12-07T08:36:24;20.30;;;13.30;;
13685;SDS011;6915;48.296;8.874;2022-12-07T08:38:54;24.40;;;15.37;;
13685;SDS011;6915;48.296;8.874;2022-12-07T08:41:23;14.80;;;10.33;;
13685;SDS011;6915;48.296;8.874;2022-12-07T08:43:52;11.60;;;8.97;;
13685;SDS011;6915;48.296;8.874;2022-12-07T08:46:23;10.83;;;8.57;;
13685;SDS011;6915;48.296;8.874;2022-12-07T08:48:58;11.10;;;8.97;;
13685;SDS011;6915;48.296;8.874;2022-12-07T08:51:32;13.83;;;8.87;;
13685;SDS011;6915;48.296;8.874;2022-12-07T08:54:03;12.97;;;9.57;;
13685;SDS011;6915;48.296;8.874;2022-12-07T08:56:33;13.30;;;9.30;;
13685;SDS011;6915;48.296;8.874;2022-12-07T08:59:03;16.70;;;9.50;;
13685;SDS011;6915;48.296;8.874;2022-12-07T09:01:33;12.63;;;9.20;;
13685;SDS011;6915;48.296;8.874;2022-12-07T09:04:02;11.97;;;8.53;;
13685;SDS011;6915;48.296;8.874;2022-12-07T09:06:30;11.00;;;8.70;;
13685;SDS011;6915;48.296;8.874;2022-12-07T09:08:59;10.43;;;8.03;;
13685;SDS011;6915;48.296;8.874;2022-12-07T09:11:30;9.80;;;7.80;;
13685;SDS011;6915;48.296;8.874;2022-12-07T09:13:59;10.33;;;8.43;;
13685;SDS011;6915;48.296;8.874;2022-12-07T09:16:28;9.27;;;7.80;;
13685;SDS011;6915;48.296;8.874;2022-12-07T09:18:57;11.80;;;8.37;;
13685;SDS011;6915;48.296;8.874;2022-12-07T09:21:25;11.20;;;7.97;;
13685;SDS011;6915;48.296;8.874;2022-12-07T09:23:54;8.43;;;6.50;;
13685;SDS011;6915;48.296;8.874;2022-12-07T09:26:23;11.37;;;7.70;;
13685;SDS011;6915;48.296;8.874;2022-12-07T09:28:53;8.23;;;7.07;;
13685;SDS011;6915;48.296;8.874;2022-12-07T09:31:22;8.70;;;6.87;;
13685;SDS011;6915;48.296;8.874;2022-12-07T09:33:54;8.20;;;6.50;;
13685;SDS011;6915;48.296;8.874;2022-12-07T09:36:24;7.87;;;6.10;;
13685;SDS011;6915;48.296;8.874;2022-12-07T09:38:55;7.80;;;6.03;;
13685;SDS011;6915;48.296;8.874;2022-12-07T09:41:25;5.43;;;4.70;;
13685;SDS011;6915;48.296;8.874;2022-12-07T09:43:59;5.70;;;5.10;;
13685;SDS011;6915;48.296;8.874;2022-12-07T09:46:30;6.03;;;5.27;;
13685;SDS011;6915;48.296;8.874;2022-12-07T09:49:01;6.47;;;5.57;;
13685;SDS011;6915;48.296;8.874;2022-12-07T09:51:31;5.17;;;4.67;;
13685;SDS011;6915;48.296;8.874;2022-12-07T09:54:00;6.00;;;5.20;;
13685;SDS011;6915;48.296;8.874;2022-12-07T09:56:32;5.67;;;4.70;;
13685;SDS011;6915;48.296;8.874;2022-12-07T09:59:03;5.27;;;4.77;;
13685;SDS011;6915;48.296;8.874;2022-12-07T10:01:32;5.03;;;4.53;;
13685;SDS011;6915;48.296;8.874;2022-12-07T10:04:08;4.47;;;4.07;;
13685;SDS011;6915;48.296;8.874;2022-12-07T10:06:39;3.90;;;3.60;;
13685;SDS011;6915;48.296;8.874;2022-12-07T10:09:09;6.17;;;4.10;;
13685;SDS011;6915;48.296;8.874;2022-12-07T10:11:59;4.23;;;3.80;;
13685;SDS011;6915;48.296;8.874;2022-12-07T10:14:32;3.77;;;3.37;;
13685;SDS011;6915;48.296;8.874;2022-12-07T10:17:05;4.63;;;3.90;;
13685;SDS011;6915;48.296;8.874;2022-12-07T10:20:20;4.07;;;3.67;;
13685;SDS011;6915;48.296;8.874;2022-12-07T10:22:57;4.63;;;3.47;;
13685;SDS011;6915;48.296;8.874;2022-12-07T10:25:29;4.17;;;3.77;;
13685;SDS011;6915;48.296;8.874;2022-12-07T10:27:59;4.60;;;4.20;;
13685;SDS011;6915;48.296;8.874;2022-12-07T10:30:46;3.90;;;3.50;;
13685;SDS011;6915;48.296;8.874;2022-12-07T10:33:27;3.73;;;3.40;;
13685;SDS011;6915;48.296;8.874;2022-12-07T10:36:09;4.27;;;3.50;;
13685;SDS011;6915;48.296;8.874;2022-12-07T10:38:44;4.07;;;3.43;;
13685;SDS011;6915;48.296;8.874;2022-12-07T10:41:12;4.77;;;3.43;;
13685;SDS011;6915;48.296;8.874;2022-12-07T10:43:48;4.17;;;3.77;;
13685;SDS011;6915;48.296;8.874;2022-12-07T10:51:29;4.37;;;3.30;;
13685;SDS011;6915;48.296;8.874;2022-12-07T10:54:06;3.20;;;2.90;;
13685;SDS011;6915;48.296;8.874;2022-12-07T11:01:51;3.17;;;2.87;;
13685;SDS011;6915;48.296;8.874;2022-12-07T11:04:29;3.40;;;3.10;;
13685;SDS011;6915;48.296;8.874;2022-12-07T11:07:08;3.77;;;3.37;;
13685;SDS011;6915;48.296;8.874;2022-12-07T11:09:47;10.50;;;5.83;;
13685;SDS011;6915;48.296;8.874;2022-12-07T11:30:32;3.00;;;2.80;;
13685;SDS011;6915;48.296;8.874;2022-12-07T11:33:10;2.73;;;2.47;;
13685;SDS011;6915;48.296;8.874;2022-12-07T11:43:27;3.00;;;2.80;;
13685;SDS011;6915;48.296;8.874;2022-12-07T11:46:02;2.97;;;2.67;;
13685;SDS011;6915;48.296;8.874;2022-12-07T11:48:35;3.67;;;3.10;;
13685;SDS011;6915;48.296;8.874;2022-12-07T11:51:09;4.27;;;3.30;;
13685;SDS011;6915;48.296;8.874;2022-12-07T11:53:42;3.30;;;3.00;;
13685;SDS011;6915;48.296;8.874;2022-12-07T11:56:19;3.17;;;2.87;;
13685;SDS011;6915;48.296;8.874;2022-12-07T11:58:51;4.27;;;3.67;;
13685;SDS011;6915;48.296;8.874;2022-12-07T12:01:28;4.17;;;3.77;;
13685;SDS011;6915;48.296;8.874;2022-12-07T12:04:03;4.23;;;3.83;;
13685;SDS011;6915;48.296;8.874;2022-12-07T12:06:42;1.60;;;1.50;;
13685;SDS011;6915;48.296;8.874;2022-12-07T12:09:12;2.30;;;2.10;;
13685;SDS011;6915;48.296;8.874;2022-12-07T12:12:00;2.33;;;2.13;;
13685;SDS011;6915;48.296;8.874;2022-12-07T12:15:06;1.60;;;1.50;;
13685;SDS011;6915;48.296;8.874;2022-12-07T12:17:50;1.60;;;1.50;;
13685;SDS011;6915;48.296;8.874;2022-12-07T12:20:29;1.80;;;1.70;;
13685;SDS011;6915;48.296;8.874;2022-12-07T12:23:05;0.77;;;0.77;;
13685;SDS011;6915;48.296;8.874;2022-12-07T12:25:39;0.90;;;0.90;;
13685;SDS011;6915;48.296;8.874;2022-12-07T12:28:23;0.70;;;0.67;;
13685;SDS011;6915;48.296;8.874;2022-12-07T12:31:06;1.20;;;1.10;;
13685;SDS011;6915;48.296;8.874;2022-12-07T12:33:44;2.63;;;2.43;;
13685;SDS011;6915;48.296;8.874;2022-12-07T12:36:19;2.10;;;1.90;;
13685;SDS011;6915;48.296;8.874;2022-12-07T12:38:49;3.10;;;2.57;;
13685;SDS011;6915;48.296;8.874;2022-12-07T12:44:39;3.47;;;2.37;;
13685;SDS011;6915;48.296;8.874;2022-12-07T12:50:15;2.90;;;2.70;;
13685;SDS011;6915;48.296;8.874;2022-12-07T12:52:54;2.70;;;2.50;;
13685;SDS011;6915;48.296;8.874;2022-12-07T12:55:28;3.20;;;2.90;;
13685;SDS011;6915;48.296;8.874;2022-12-07T13:10:35;2.40;;;2.00;;
13685;SDS011;6915;48.296;8.874;2022-12-07T13:25:29;5.47;;;3.20;;
13685;SDS011;6915;48.296;8.874;2022-12-07T13:28:01;3.87;;;3.57;;
13685;SDS011;6915;48.296;8.874;2022-12-07T13:30:38;3.63;;;3.33;;
13685;SDS011;6915;48.296;8.874;2022-12-07T13:33:12;6.20;;;3.53;;
13685;SDS011;6915;48.296;8.874;2022-12-07T13:35:43;3.80;;;3.43;;
13685;SDS011;6915;48.296;8.874;2022-12-07T15:37:27;3.00;;;2.80;;
13685;SDS011;6915;48.296;8.874;2022-12-07T15:39:58;3.40;;;3.10;;
13685;SDS011;6915;48.296;8.874;2022-12-07T15:42:27;3.20;;;2.90;;
13685;SDS011;6915;48.296;8.874;2022-12-07T15:44:56;5.87;;;3.67;;
13685;SDS011;6915;48.296;8.874;2022-12-07T15:47:33;3.23;;;2.93;;
13685;SDS011;6915;48.296;8.874;2022-12-07T15:50:03;5.57;;;3.33;;
13685;SDS011;6915;48.296;8.874;2022-12-07T15:52:35;4.20;;;3.80;;
13685;SDS011;6915;48.296;8.874;2022-12-07T15:55:05;7.50;;;4.27;;
13685;SDS011;6915;48.296;8.874;2022-12-07T15:57:36;4.47;;;3.83;;
13685;SDS011;6915;48.296;8.874;2022-12-07T16:00:06;4.93;;;4.17;;
13685;SDS011;6915;48.296;8.874;2022-12-07T16:02:35;4.63;;;4.07;;
13685;SDS011;6915;48.296;8.874;2022-12-07T16:05:05;5.47;;;4.40;;
13685;SDS011;6915;48.296;8.874;2022-12-07T16:07:35;9.37;;;5.33;;
13685;SDS011;6915;48.296;8.874;2022-12-07T16:10:05;7.03;;;4.50;;
13685;SDS011;6915;48.296;8.874;2022-12-07T16:12:32;13.10;;;6.43;;
13685;SDS011;6915;48.296;8.874;2022-12-07T16:15:03;14.80;;;8.20;;
13685;SDS011;6915;48.296;8.874;2022-12-07T16:17:33;12.10;;;6.23;;
13685;SDS011;6915;48.296;8.874;2022-12-07T16:20:03;18.13;;;10.37;;
13685;SDS011;6915;48.296;8.874;2022-12-07T16:22:31;8.73;;;5.10;;
13685;SDS011;6915;48.296;8.874;2022-12-07T16:25:01;4.57;;;3.93;;
13685;SDS011;6915;48.296;8.874;2022-12-07T16:27:31;3.77;;;3.40;;
13685;SDS011;6915;48.296;8.874;2022-12-07T16:30:00;5.20;;;3.87;;
13685;SDS011;6915;48.296;8.874;2022-12-07T16:32:29;4.23;;;3.50;;
13685;SDS011;6915;48.296;8.874;2022-12-07T16:34:59;4.00;;;3.60;;
13685;SDS011;6915;48.296;8.874;2022-12-07T16:37:28;3.67;;;3.37;;
13685;SDS011;6915;48.296;8.874;2022-12-07T16:39:56;7.37;;;3.80;;
13685;SDS011;6915;48.296;8.874;2022-12-07T16:42:27;4.40;;;4.00;;
13685;SDS011;6915;48.296;8.874;2022-12-07T16:45:00;4.13;;;3.73;;
13685;SDS011;6915;48.296;8.874;2022-12-07T16:47:31;5.67;;;4.40;;
13685;SDS011;6915;48.296;8.874;2022-12-07T16:50:03;5.00;;;3.90;;
13685;SDS011;6915;48.296;8.874;2022-12-07T16:52:34;4.50;;;3.60;;
13685;SDS011;6915;48.296;8.874;2022-12-07T16:55:03;4.80;;;3.60;;
13685;SDS011;6915;48.296;8.874;2022-12-07T16:57:33;4.07;;;3.67;;
13685;SDS011;6915;48.296;8.874;2022-12-07T17:00:05;5.40;;;3.67;;
13685;SDS011;6915;48.296;8.874;2022-12-07T17:02:35;4.97;;;3.60;;
13685;SDS011;6915;48.296;8.874;2022-12-07T17:05:04;4.87;;;4.47;;
13685;SDS011;6915;48.296;8.874;2022-12-07T17:07:34;4.77;;;4.37;;
13685;SDS011;6915;48.296;8.874;2022-12-07T17:10:04;5.00;;;4.33;;
13685;SDS011;6915;48.296;8.874;2022-12-07T17:38:28;2.40;;;1.70;;
13685;SDS011;6915;48.296;8.874;2022-12-07T17:40:57;2.27;;;2.07;;
13685;SDS011;6915;48.296;8.874;2022-12-07T17:43:35;2.50;;;1.97;;
13685;SDS011;6915;48.296;8.874;2022-12-07T21:27:09;5.80;;;4.70;;
13685;SDS011;6915;48.296;8.874;2022-12-07T21:29:38;6.77;;;5.07;;
13685;SDS011;6915;48.296;8.874;2022-12-07T21:32:07;5.17;;;4.57;;
13685;SDS011;6915;48.296;8.874;2022-12-07T21:34:37;4.33;;;3.93;;
13685;SDS011;6915;48.296;8.874;2022-12-07T21:37:06;18.10;;;13.80;;
13685;SDS011;6915;48.296;8.874;2022-12-07T21:39:35;14.37;;;10.60;;
13685;SDS011;6915;48.296;8.874;2022-12-07T21:42:04;11.77;;;9.07;;
13685;SDS011;6915;48.296;8.874;2022-12-07T21:44:35;15.63;;;11.20;;
13685;SDS011;6915;48.296;8.874;2022-12-07T21:47:04;11.97;;;9.03;;
13685;SDS011;6915;48.296;8.874;2022-12-07T21:49:35;7.43;;;6.07;;
13685;SDS011;6915;48.296;8.874;2022-12-07T21:52:03;4.87;;;4.20;;
13685;SDS011;6915;48.296;8.874;2022-12-07T21:54:33;4.40;;;4.00;;
13685;SDS011;6915;48.296;8.874;2022-12-07T21:57:02;5.17;;;4.23;;
13685;SDS011;6915;48.296;8.874;2022-12-07T21:59:31;6.63;;;5.50;;
13685;SDS011;6915;48.296;8.874;2022-12-07T22:02:01;6.63;;;5.60;;
13685;SDS011;6915;48.296;8.874;2022-12-07T22:04:34;5.77;;;4.87;;
13685;SDS011;6915;48.296;8.874;2022-12-07T22:07:03;6.07;;;4.80;;
13685;SDS011;6915;48.296;8.874;2022-12-07T22:09:32;6.03;;;5.23;;
13685;SDS011;6915;48.296;8.874;2022-12-07T22:12:01;5.87;;;5.27;;
13685;SDS011;6915;48.296;8.874;2022-12-07T22:14:30;6.37;;;5.07;;
13685;SDS011;6915;48.296;8.874;2022-12-07T22:17:18;4.57;;;4.10;;
13685;SDS011;6915;48.296;8.874;2022-12-07T22:19:52;8.07;;;4.30;;
13685;SDS011;6915;48.296;8.874;2022-12-07T22:22:21;4.97;;;4.47;;
13685;SDS011;6915;48.296;8.874;2022-12-07T22:24:50;7.57;;;5.37;;
13685;SDS011;6915;48.296;8.874;2022-12-07T22:27:21;8.53;;;5.30;;
13685;SDS011;6915;48.296;8.874;2022-12-07T22:29:50;6.50;;;5.27;;
13685;SDS011;6915;48.296;8.874;2022-12-07T22:32:20;7.97;;;5.50;;
13685;SDS011;6915;48.296;8.874;2022-12-07T22:34:49;5.10;;;4.40;;
13685;SDS011;6915;48.296;8.874;2022-12-07T22:37:17;7.10;;;4.50;;
13685;SDS011;6915;48.296;8.874;2022-12-07T22:39:53;5.60;;;4.20;;
13685;SDS011;6915;48.296;8.874;2022-12-07T22:42:21;5.90;;;4.47;;
13685;SDS011;6915;48.296;8.874;2022-12-07T22:44:50;5.53;;;4.40;;
13685;SDS011;6915;48.296;8.874;2022-12-07T22:47:21;6.17;;;4.70;;
13685;SDS011;6915;48.296;8.874;2022-12-07T22:49:50;5.87;;;4.77;;
13685;SDS011;6915;48.296;8.874;2022-12-07T22:52:19;5.07;;;4.30;;
13685;SDS011;6915;48.296;8.874;2022-12-07T22:54:48;4.40;;;4.00;;
13685;SDS011;6915;48.296;8.874;2022-12-07T22:57:16;5.37;;;4.30;;
13685;SDS011;6915;48.296;8.874;2022-12-07T22:59:45;5.33;;;4.50;;
13685;SDS011;6915;48.296;8.874;2022-12-07T23:02:17;5.63;;;4.90;;
13685;SDS011;6915;48.296;8.874;2022-12-07T23:04:47;8.13;;;5.33;;
13685;SDS011;6915;48.296;8.874;2022-12-07T23:07:15;7.27;;;5.40;;
13685;SDS011;6915;48.296;8.874;2022-12-07T23:09:44;7.83;;;5.60;;
13685;SDS011;6915;48.296;8.874;2022-12-07T23:12:13;6.13;;;5.30;;
13685;SDS011;6915;48.296;8.874;2022-12-07T23:14:59;8.50;;;5.40;;
13685;SDS011;6915;48.296;8.874;2022-12-07T23:17:31;7.30;;;5.23;;
13685;SDS011;6915;48.296;8.874;2022-12-07T23:20:02;5.97;;;4.80;;
13685;SDS011;6915;48.296;8.874;2022-12-07T23:22:31;6.20;;;5.00;;
13685;SDS011;6915;48.296;8.874;2022-12-07T23:25:02;7.67;;;5.23;;
13685;SDS011;6915;48.296;8.874;2022-12-07T23:27:32;7.27;;;5.40;;
13685;SDS011;6915;48.296;8.874;2022-12-07T23:30:01;6.73;;;5.33;;
13685;SDS011;6915;48.296;8.874;2022-12-07T23:32:30;6.33;;;4.97;;
13685;SDS011;6915;48.296;8.874;2022-12-07T23:34:59;7.63;;;5.00;;
13685;SDS011;6915;48.296;8.874;2022-12-07T23:37:29;5.83;;;4.90;;
13685;SDS011;6915;48.296;8.874;2022-12-07T23:39:57;6.00;;;5.37;;
13685;SDS011;6915;48.296;8.874;2022-12-07T23:42:26;7.50;;;5.60;;
13685;SDS011;6915;48.296;8.874;2022-12-07T23:44:54;5.83;;;4.97;;
13685;SDS011;6915;48.296;8.874;2022-12-07T23:47:25;8.47;;;5.50;;
13685;SDS011;6915;48.296;8.874;2022-12-07T23:49:54;6.50;;;5.33;;
13685;SDS011;6915;48.296;8.874;2022-12-07T23:52:22;6.13;;;5.30;;
13685;SDS011;6915;48.296;8.874;2022-12-07T23:54:52;6.40;;;5.10;;
13685;SDS011;6915;48.296;8.874;2022-12-07T23:57:21;6.97;;;5.27;;
13685;SDS011;6915;48.296;8.874;2022-12-07T23:59:50;6.07;;;5.20;;
